Aurillac Airport

METAR LFLW TAF LFLW
-3 °C
°C
-
°C
19m
Âge
01:19:08
LT
00:19
UTC
0 ft

1.000

2.000

3.000

4.000

5.000

MVFR
<?= Yii::t('app', 'Wind direction') ?> <?= Yii::t('app', 'of'); ?>
VAR
08:06
Lever du soleil
93%
Humidité
Cisaillement du vent
Fermé/neige
Portée visuelle RWY
Condition RWY
Visibilité vert.
Visibilité min.
CAVOK
Tendance
Correction
Rapport spécial
1033 hPa
QNH
METAR LFLW 040000Z AUTO 00000KT 6000 NSC M03/M04 Q1033
Aucun nuage
0 kt
0 kt
6 km
Vue
Non
Base cloud
Non
Vent
metar-taf.com/LFLW

Metar-Taf.com

Décodeur visuel

Nous et des tiers suivons ton comportement Internet sur notre site Web à l'aide de cookies. Si tu continues, nous supposons que tu es d'accord avec notre Politique en matière de cookies.